sensor_id;sensor_type;location;lat;lon;timestamp;pressure;altitude;pressure_sealevel;temperature;humidity
59877;BME280;45749;51.140;17.184;2023-08-01T00:01:23;99077.31;;;21.07;67.27
59877;BME280;45749;51.140;17.184;2023-08-01T00:03:48;99092.16;;;21.16;67.10
59877;BME280;45749;51.140;17.184;2023-08-01T00:06:14;99070.31;;;21.06;67.01
59877;BME280;45749;51.140;17.184;2023-08-01T00:08:39;99083.25;;;21.16;67.23
59877;BME280;45749;51.140;17.184;2023-08-01T00:11:04;99055.47;;;21.03;67.03
59877;BME280;45749;51.140;17.184;2023-08-01T00:13:29;99061.00;;;21.08;67.36
59877;BME280;45749;51.140;17.184;2023-08-01T00:15:55;99084.69;;;21.25;67.26
59877;BME280;45749;51.140;17.184;2023-08-01T00:18:20;99061.22;;;21.14;66.88
59877;BME280;45749;51.140;17.184;2023-08-01T00:20:46;99047.19;;;21.05;67.14
59877;BME280;45749;51.140;17.184;2023-08-01T00:23:11;99064.72;;;21.14;67.20
59877;BME280;45749;51.140;17.184;2023-08-01T00:25:36;99053.19;;;21.07;67.25
59877;BME280;45749;51.140;17.184;2023-08-01T00:28:02;99074.78;;;21.25;67.42
59877;BME280;45749;51.140;17.184;2023-08-01T00:30:27;99076.88;;;21.23;67.21
59877;BME280;45749;51.140;17.184;2023-08-01T00:32:52;99032.78;;;20.99;67.46
59877;BME280;45749;51.140;17.184;2023-08-01T00:35:18;99069.66;;;21.24;67.21
59877;BME280;45749;51.140;17.184;2023-08-01T00:37:43;99032.16;;;21.04;67.34
59877;BME280;45749;51.140;17.184;2023-08-01T00:40:08;99060.97;;;21.22;67.32
59877;BME280;45749;51.140;17.184;2023-08-01T00:42:36;99054.78;;;21.21;67.36
59877;BME280;45749;51.140;17.184;2023-08-01T00:45:03;98996.50;;;20.90;68.10
59877;BME280;45749;51.140;17.184;2023-08-01T00:47:28;99056.84;;;21.26;67.47
59877;BME280;45749;51.140;17.184;2023-08-01T00:49:53;99033.13;;;21.23;67.43
59877;BME280;45749;51.140;17.184;2023-08-01T00:52:19;99009.22;;;21.15;67.73
59877;BME280;45749;51.140;17.184;2023-08-01T00:54:44;99005.34;;;21.04;67.70
59877;BME280;45749;51.140;17.184;2023-08-01T00:57:10;98993.81;;;20.97;67.69
59877;BME280;45749;51.140;17.184;2023-08-01T00:59:35;98999.59;;;20.94;67.77
59877;BME280;45749;51.140;17.184;2023-08-01T01:02:01;99011.75;;;20.96;67.60
59877;BME280;45749;51.140;17.184;2023-08-01T01:04:26;98977.94;;;20.82;68.13
59877;BME280;45749;51.140;17.184;2023-08-01T01:07:03;98991.75;;;20.92;68.10
59877;BME280;45749;51.140;17.184;2023-08-01T01:09:29;98981.03;;;20.85;67.98
59877;BME280;45749;51.140;17.184;2023-08-01T01:11:57;98959.19;;;20.82;68.05
59877;BME280;45749;51.140;17.184;2023-08-01T01:14:22;98964.94;;;20.85;68.08
59877;BME280;45749;51.140;17.184;2023-08-01T01:16:48;98963.09;;;20.79;67.87
59877;BME280;45749;51.140;17.184;2023-08-01T01:19:13;98968.91;;;20.76;68.11
59877;BME280;45749;51.140;17.184;2023-08-01T01:21:39;98954.06;;;20.74;68.29
59877;BME280;45749;51.140;17.184;2023-08-01T01:24:08;98947.28;;;20.71;68.45
59877;BME280;45749;51.140;17.184;2023-08-01T01:26:35;98944.34;;;20.73;68.68
59877;BME280;45749;51.140;17.184;2023-08-01T01:29:02;98934.28;;;20.68;68.59
59877;BME280;45749;51.140;17.184;2023-08-01T01:31:30;98961.88;;;20.82;68.64
59877;BME280;45749;51.140;17.184;2023-08-01T01:33:56;98954.06;;;20.74;68.65
59877;BME280;45749;51.140;17.184;2023-08-01T01:36:22;98949.94;;;20.71;68.82
59877;BME280;45749;51.140;17.184;2023-08-01T01:38:47;98947.91;;;20.67;68.81
59877;BME280;45749;51.140;17.184;2023-08-01T01:41:12;98919.69;;;20.51;68.51
59877;BME280;45749;51.140;17.184;2023-08-01T01:43:38;98927.31;;;20.47;68.78
59877;BME280;45749;51.140;17.184;2023-08-01T01:46:03;98957.59;;;20.61;68.79
59877;BME280;45749;51.140;17.184;2023-08-01T01:51:51;98930.41;;;20.37;69.02
59877;BME280;45749;51.140;17.184;2023-08-01T01:54:16;98898.06;;;20.19;69.21
59877;BME280;45749;51.140;17.184;2023-08-01T01:56:42;98920.31;;;20.33;68.97
59877;BME280;45749;51.140;17.184;2023-08-01T01:59:07;98914.94;;;20.33;68.98
59877;BME280;45749;51.140;17.184;2023-08-01T02:01:32;98890.88;;;20.20;69.34
59877;BME280;45749;51.140;17.184;2023-08-01T02:03:57;98878.53;;;20.12;69.33
59877;BME280;45749;51.140;17.184;2023-08-01T02:06:23;98922.97;;;20.39;69.13
59877;BME280;45749;51.140;17.184;2023-08-01T02:08:48;98885.09;;;20.23;69.07
59877;BME280;45749;51.140;17.184;2023-08-01T02:11:13;98913.28;;;20.38;69.45
59877;BME280;45749;51.140;17.184;2023-08-01T02:13:39;98889.59;;;20.35;69.10
59877;BME280;45749;51.140;17.184;2023-08-01T02:16:04;98912.66;;;20.50;69.29
59877;BME280;45749;51.140;17.184;2023-08-01T02:18:29;98889.59;;;20.42;69.14
59877;BME280;45749;51.140;17.184;2023-08-01T02:20:54;98881.13;;;20.45;68.89
59877;BME280;45749;51.140;17.184;2023-08-01T02:23:20;98876.19;;;20.42;68.93
59877;BME280;45749;51.140;17.184;2023-08-01T02:25:45;98856.00;;;20.33;69.10
59877;BME280;45749;51.140;17.184;2023-08-01T02:28:10;98853.75;;;20.36;68.56
59877;BME280;45749;51.140;17.184;2023-08-01T02:30:37;98872.91;;;20.47;69.16
59877;BME280;45749;51.140;17.184;2023-08-01T02:33:03;98872.28;;;20.45;68.80
59877;BME280;45749;51.140;17.184;2023-08-01T02:35:29;98874.53;;;20.48;69.27
59877;BME280;45749;51.140;17.184;2023-08-01T02:37:55;98880.09;;;20.59;69.08
59877;BME280;45749;51.140;17.184;2023-08-01T02:40:20;98870.81;;;20.55;68.84
59877;BME280;45749;51.140;17.184;2023-08-01T02:42:46;98895.31;;;20.72;68.83
59877;BME280;45749;51.140;17.184;2023-08-01T02:45:11;98860.34;;;20.54;68.81
59877;BME280;45749;51.140;17.184;2023-08-01T02:47:37;98838.69;;;20.42;69.05
59877;BME280;45749;51.140;17.184;2023-08-01T02:50:02;98857.41;;;20.49;69.21
59877;BME280;45749;51.140;17.184;2023-08-01T02:52:28;98851.25;;;20.48;69.28
59877;BME280;45749;51.140;17.184;2023-08-01T02:54:53;98850.84;;;20.45;68.96
59877;BME280;45749;51.140;17.184;2023-08-01T02:57:18;98859.72;;;20.52;69.47
59877;BME280;45749;51.140;17.184;2023-08-01T02:59:44;98825.53;;;20.34;69.59
59877;BME280;45749;51.140;17.184;2023-08-01T03:02:10;98846.72;;;20.42;69.42
59877;BME280;45749;51.140;17.184;2023-08-01T03:04:35;98822.03;;;20.27;69.46
59877;BME280;45749;51.140;17.184;2023-08-01T03:07:00;98839.78;;;20.28;69.62
59877;BME280;45749;51.140;17.184;2023-08-01T03:09:26;98861.59;;;20.38;69.96
59877;BME280;45749;51.140;17.184;2023-08-01T03:11:51;98814.88;;;20.14;70.50
59877;BME280;45749;51.140;17.184;2023-08-01T03:14:16;98844.31;;;20.27;70.49
59877;BME280;45749;51.140;17.184;2023-08-01T03:16:42;98794.09;;;20.03;70.71
59877;BME280;45749;51.140;17.184;2023-08-01T03:19:07;98821.66;;;20.17;70.90
59877;BME280;45749;51.140;17.184;2023-08-01T03:21:34;98831.53;;;20.23;70.89
59877;BME280;45749;51.140;17.184;2023-08-01T03:24:01;98864.88;;;20.40;70.72
59877;BME280;45749;51.140;17.184;2023-08-01T03:26:26;98863.03;;;20.34;70.86
59877;BME280;45749;51.140;17.184;2023-08-01T03:28:55;98842.66;;;20.20;70.96
59877;BME280;45749;51.140;17.184;2023-08-01T03:31:22;98794.34;;;19.88;70.87
59877;BME280;45749;51.140;17.184;2023-08-01T03:33:47;98805.63;;;19.90;71.05
59877;BME280;45749;51.140;17.184;2023-08-01T03:36:12;98832.81;;;20.00;71.47
59877;BME280;45749;51.140;17.184;2023-08-01T03:38:38;98848.84;;;20.07;71.77
59877;BME280;45749;51.140;17.184;2023-08-01T03:41:04;98837.34;;;19.93;72.01
59877;BME280;45749;51.140;17.184;2023-08-01T03:43:29;98843.75;;;19.92;71.93
59877;BME280;45749;51.140;17.184;2023-08-01T03:45:55;98813.69;;;19.70;72.09
59877;BME280;45749;51.140;17.184;2023-08-01T03:48:20;98809.56;;;19.67;72.63
59877;BME280;45749;51.140;17.184;2023-08-01T03:50:45;98789.19;;;19.53;72.36
59877;BME280;45749;51.140;17.184;2023-08-01T03:53:11;98775.00;;;19.46;72.70
59877;BME280;45749;51.140;17.184;2023-08-01T03:55:36;98823.97;;;19.80;72.89
59877;BME280;45749;51.140;17.184;2023-08-01T03:58:02;98794.75;;;19.58;72.77
59877;BME280;45749;51.140;17.184;2023-08-01T04:00:27;98801.31;;;19.62;72.92
59877;BME280;45749;51.140;17.184;2023-08-01T04:02:57;98810.00;;;19.71;73.13
59877;BME280;45749;51.140;17.184;2023-08-01T04:05:22;98794.53;;;19.60;73.15
59877;BME280;45749;51.140;17.184;2023-08-01T04:07:49;98780.13;;;19.48;73.50
59877;BME280;45749;51.140;17.184;2023-08-01T04:10:14;98777.25;;;19.49;73.35
59877;BME280;45749;51.140;17.184;2023-08-01T04:12:39;98805.03;;;19.61;73.48
59877;BME280;45749;51.140;17.184;2023-08-01T04:15:05;98802.78;;;19.58;73.61
59877;BME280;45749;51.140;17.184;2023-08-01T04:17:31;98802.38;;;19.55;73.84
59877;BME280;45749;51.140;17.184;2023-08-01T04:19:56;98816.56;;;19.62;73.90
59877;BME280;45749;51.140;17.184;2023-08-01T04:22:22;98813.47;;;19.52;73.87
59877;BME280;45749;51.140;17.184;2023-08-01T04:24:47;98772.72;;;19.23;74.30
59877;BME280;45749;51.140;17.184;2023-08-01T04:27:12;98799.88;;;19.40;74.53
59877;BME280;45749;51.140;17.184;2023-08-01T04:29:38;98798.84;;;19.34;75.01
59877;BME280;45749;51.140;17.184;2023-08-01T04:32:03;98787.53;;;19.26;75.24
59877;BME280;45749;51.140;17.184;2023-08-01T04:34:28;98813.06;;;19.41;75.09
59877;BME280;45749;51.140;17.184;2023-08-01T04:36:54;98832.41;;;19.50;75.66
59877;BME280;45749;51.140;17.184;2023-08-01T04:39:20;98812.44;;;19.33;76.00
59877;BME280;45749;51.140;17.184;2023-08-01T04:41:45;98826.63;;;19.40;76.40
59877;BME280;45749;51.140;17.184;2023-08-01T04:44:11;98831.78;;;19.41;76.52
59877;BME280;45749;51.140;17.184;2023-08-01T04:46:36;98824.59;;;19.35;76.29
59877;BME280;45749;51.140;17.184;2023-08-01T04:49:01;98819.41;;;19.27;76.72
59877;BME280;45749;51.140;17.184;2023-08-01T04:51:27;98802.75;;;19.18;77.34
59877;BME280;45749;51.140;17.184;2023-08-01T04:53:52;98812.84;;;19.30;77.45
59877;BME280;45749;51.140;17.184;2023-08-01T04:56:17;98771.06;;;19.02;77.73
59877;BME280;45749;51.140;17.184;2023-08-01T04:58:43;98807.50;;;19.23;78.22
59877;BME280;45749;51.140;17.184;2023-08-01T05:01:08;98795.53;;;19.06;78.35
59877;BME280;45749;51.140;17.184;2023-08-01T05:03:33;98812.59;;;19.11;79.15
59877;BME280;45749;51.140;17.184;2023-08-01T05:05:59;98811.38;;;19.07;79.14
59877;BME280;45749;51.140;17.184;2023-08-01T05:08:24;98814.03;;;19.07;79.26
59877;BME280;45749;51.140;17.184;2023-08-01T05:10:49;98798.00;;;19.07;79.59
59877;BME280;45749;51.140;17.184;2023-08-01T05:13:15;98800.25;;;19.04;79.71
59877;BME280;45749;51.140;17.184;2023-08-01T05:15:40;98804.16;;;19.01;79.85
59877;BME280;45749;51.140;17.184;2023-08-01T05:18:06;98803.97;;;19.03;80.11
59877;BME280;45749;51.140;17.184;2023-08-01T05:20:31;98796.94;;;19.02;80.68
59877;BME280;45749;51.140;17.184;2023-08-01T05:22:58;98793.47;;;19.01;80.64
59877;BME280;45749;51.140;17.184;2023-08-01T05:25:24;98798.22;;;19.06;80.74
59877;BME280;45749;51.140;17.184;2023-08-01T05:27:49;98798.00;;;19.07;81.01
59877;BME280;45749;51.140;17.184;2023-08-01T05:30:14;98792.66;;;19.07;81.21
59877;BME280;45749;51.140;17.184;2023-08-01T05:32:40;98789.16;;;19.07;81.33
59877;BME280;45749;51.140;17.184;2023-08-01T05:35:06;98794.91;;;19.04;81.47
59877;BME280;45749;51.140;17.184;2023-08-01T05:37:32;98791.19;;;19.05;82.05
59877;BME280;45749;51.140;17.184;2023-08-01T05:39:57;98785.66;;;19.06;82.33
59877;BME280;45749;51.140;17.184;2023-08-01T05:42:22;98772.69;;;18.96;82.37
59877;BME280;45749;51.140;17.184;2023-08-01T05:44:48;98794.28;;;19.08;82.42
59877;BME280;45749;51.140;17.184;2023-08-01T05:47:13;98789.97;;;19.07;82.64
59877;BME280;45749;51.140;17.184;2023-08-01T05:49:38;98791.59;;;19.02;82.94
59877;BME280;45749;51.140;17.184;2023-08-01T05:52:04;98788.13;;;19.01;83.19
59877;BME280;45749;51.140;17.184;2023-08-01T05:54:29;98789.97;;;19.01;83.76
59877;BME280;45749;51.140;17.184;2023-08-01T05:56:55;98787.91;;;18.96;83.90
59877;BME280;45749;51.140;17.184;2023-08-01T05:59:20;98780.50;;;18.91;84.34
59877;BME280;45749;51.140;17.184;2023-08-01T06:01:46;98778.03;;;18.90;84.58
59877;BME280;45749;51.140;17.184;2023-08-01T06:04:11;98781.94;;;18.87;84.97
59877;BME280;45749;51.140;17.184;2023-08-01T06:06:37;98773.28;;;18.85;84.80
59877;BME280;45749;51.140;17.184;2023-08-01T06:09:02;98780.28;;;18.86;85.00
59877;BME280;45749;51.140;17.184;2023-08-01T06:11:27;98769.78;;;18.78;85.57
59877;BME280;45749;51.140;17.184;2023-08-01T06:13:53;98762.38;;;18.73;85.56
59877;BME280;45749;51.140;17.184;2023-08-01T06:16:18;98777.19;;;18.83;85.83
59877;BME280;45749;51.140;17.184;2023-08-01T06:18:43;98765.47;;;18.84;85.94
59877;BME280;45749;51.140;17.184;2023-08-01T06:21:09;98766.91;;;18.80;86.09
59877;BME280;45749;51.140;17.184;2023-08-01T06:23:34;98752.06;;;18.70;86.65
59877;BME280;45749;51.140;17.184;2023-08-01T06:25:59;98758.06;;;18.79;86.73
59877;BME280;45749;51.140;17.184;2023-08-01T06:28:24;98755.81;;;18.76;86.57
59877;BME280;45749;51.140;17.184;2023-08-01T06:30:50;98759.09;;;18.78;86.81
59877;BME280;45749;51.140;17.184;2023-08-01T06:33:15;98757.66;;;18.76;86.92
59877;BME280;45749;51.140;17.184;2023-08-01T06:35:40;98752.50;;;18.74;87.49
59877;BME280;45749;51.140;17.184;2023-08-01T06:38:06;98753.13;;;18.76;87.37
59877;BME280;45749;51.140;17.184;2023-08-01T06:40:31;98749.22;;;18.79;87.82
59877;BME280;45749;51.140;17.184;2023-08-01T06:42:56;98726.97;;;18.71;87.92
59877;BME280;45749;51.140;17.184;2023-08-01T06:45:21;98735.25;;;18.77;88.30
59877;BME280;45749;51.140;17.184;2023-08-01T06:47:47;98736.88;;;18.78;88.06
59877;BME280;45749;51.140;17.184;2023-08-01T06:50:12;98718.00;;;18.72;88.04
59877;BME280;45749;51.140;17.184;2023-08-01T06:52:37;98732.38;;;18.78;88.27
59877;BME280;45749;51.140;17.184;2023-08-01T06:55:03;98720.44;;;18.81;88.39
59877;BME280;45749;51.140;17.184;2023-08-01T06:57:28;98715.72;;;18.76;88.58
59877;BME280;45749;51.140;17.184;2023-08-01T06:59:53;98717.78;;;18.74;88.64
59877;BME280;45749;51.140;17.184;2023-08-01T07:02:19;98714.47;;;18.72;88.87
59877;BME280;45749;51.140;17.184;2023-08-01T07:04:44;98719.63;;;18.73;88.74
59877;BME280;45749;51.140;17.184;2023-08-01T07:07:09;98702.72;;;18.66;88.86
59877;BME280;45749;51.140;17.184;2023-08-01T07:09:35;98711.16;;;18.70;88.81
59877;BME280;45749;51.140;17.184;2023-08-01T07:12:00;98715.47;;;18.71;88.81
59877;BME280;45749;51.140;17.184;2023-08-01T07:14:25;98721.84;;;18.70;89.43
59877;BME280;45749;51.140;17.184;2023-08-01T07:16:51;98694.88;;;18.51;89.38
59877;BME280;45749;51.140;17.184;2023-08-01T07:19:16;98704.13;;;18.62;89.42
59877;BME280;45749;51.140;17.184;2023-08-01T07:21:41;98703.13;;;18.63;89.61
59877;BME280;45749;51.140;17.184;2023-08-01T07:24:09;98674.53;;;18.44;89.89
59877;BME280;45749;51.140;17.184;2023-08-01T07:26:34;98708.47;;;18.63;90.15
59877;BME280;45749;51.140;17.184;2023-08-01T07:29:00;98712.78;;;18.64;90.16
59877;BME280;45749;51.140;17.184;2023-08-01T07:31:25;98697.56;;;18.58;90.37
59877;BME280;45749;51.140;17.184;2023-08-01T07:33:50;98670.22;;;18.43;90.63
59877;BME280;45749;51.140;17.184;2023-08-01T07:36:15;98698.63;;;18.64;90.65
59877;BME280;45749;51.140;17.184;2023-08-01T07:38:41;98698.22;;;18.67;90.77
59877;BME280;45749;51.140;17.184;2023-08-01T07:41:06;98684.63;;;18.62;90.90
59877;BME280;45749;51.140;17.184;2023-08-01T07:43:32;98698.63;;;18.70;91.22
59877;BME280;45749;51.140;17.184;2023-08-01T07:45:58;98698.25;;;18.73;91.13
59877;BME280;45749;51.140;17.184;2023-08-01T07:48:24;98701.56;;;18.76;91.60
59877;BME280;45749;51.140;17.184;2023-08-01T07:50:49;98650.31;;;18.59;91.62
59877;BME280;45749;51.140;17.184;2023-08-01T07:53:14;98682.41;;;18.79;92.14
59877;BME280;45749;51.140;17.184;2023-08-01T07:55:39;98668.22;;;18.78;92.16
59877;BME280;45749;51.140;17.184;2023-08-01T07:58:05;98671.94;;;18.84;92.43
59877;BME280;45749;51.140;17.184;2023-08-01T08:00:30;98678.75;;;18.86;92.40
59877;BME280;45749;51.140;17.184;2023-08-01T08:02:55;98680.59;;;18.92;92.68
59877;BME280;45749;51.140;17.184;2023-08-01T08:05:21;98664.34;;;18.87;92.57
59877;BME280;45749;51.140;17.184;2023-08-01T08:07:46;98663.53;;;18.87;92.70
59877;BME280;45749;51.140;17.184;2023-08-01T08:10:12;98671.53;;;19.00;92.62
59877;BME280;45749;51.140;17.184;2023-08-01T08:12:37;98648.31;;;18.94;92.98
59877;BME280;45749;51.140;17.184;2023-08-01T08:15:03;98663.13;;;19.03;93.00
59877;BME280;45749;51.140;17.184;2023-08-01T08:17:32;98639.47;;;18.93;92.94
59877;BME280;45749;51.140;17.184;2023-08-01T08:19:57;98664.56;;;19.12;93.43
59877;BME280;45749;51.140;17.184;2023-08-01T08:22:22;98629.59;;;19.01;93.21
59877;BME280;45749;51.140;17.184;2023-08-01T08:24:48;98649.31;;;19.19;93.70
59877;BME280;45749;51.140;17.184;2023-08-01T08:27:13;98640.47;;;19.26;93.91
59877;BME280;45749;51.140;17.184;2023-08-01T08:29:38;98640.25;;;19.27;93.79
59877;BME280;45749;51.140;17.184;2023-08-01T08:32:04;98614.75;;;19.25;93.97
59877;BME280;45749;51.140;17.184;2023-08-01T08:34:30;98616.00;;;19.22;94.38
59877;BME280;45749;51.140;17.184;2023-08-01T08:36:55;98630.75;;;19.38;94.80
59877;BME280;45749;51.140;17.184;2023-08-01T08:39:21;98593.78;;;19.15;94.16
59877;BME280;45749;51.140;17.184;2023-08-01T08:41:48;98622.53;;;19.39;93.88
59877;BME280;45749;51.140;17.184;2023-08-01T08:44:42;98585.56;;;19.16;94.09
59877;BME280;45749;51.140;17.184;2023-08-01T08:47:07;98613.72;;;19.39;93.99
59877;BME280;45749;51.140;17.184;2023-08-01T08:49:33;98599.56;;;19.18;93.93
59877;BME280;45749;51.140;17.184;2023-08-01T08:51:59;98623.19;;;19.35;93.62
59877;BME280;45749;51.140;17.184;2023-08-01T08:54:24;98591.75;;;19.10;94.06
59877;BME280;45749;51.140;17.184;2023-08-01T08:56:51;98623.19;;;19.35;94.30
59877;BME280;45749;51.140;17.184;2023-08-01T08:59:16;98618.44;;;19.37;94.09
59877;BME280;45749;51.140;17.184;2023-08-01T09:01:42;98617.00;;;19.34;94.17
59877;BME280;45749;51.140;17.184;2023-08-01T09:04:08;98616.78;;;19.36;93.85
59877;BME280;45749;51.140;17.184;2023-08-01T09:06:49;98613.09;;;19.30;94.24
59877;BME280;45749;51.140;17.184;2023-08-01T09:09:16;98588.44;;;19.21;94.71
59877;BME280;45749;51.140;17.184;2023-08-01T09:11:48;98607.94;;;19.42;94.88
59877;BME280;45749;51.140;17.184;2023-08-01T09:14:15;98570.56;;;19.15;95.07
59877;BME280;45749;51.140;17.184;2023-08-01T09:16:41;98611.00;;;19.45;95.10
59877;BME280;45749;51.140;17.184;2023-08-01T09:19:08;98570.34;;;19.24;95.26
59877;BME280;45749;51.140;17.184;2023-08-01T09:21:50;98540.34;;;19.08;94.87
59877;BME280;45749;51.140;17.184;2023-08-01T09:24:20;98560.06;;;19.20;95.14
59877;BME280;45749;51.140;17.184;2023-08-01T09:26:47;98614.06;;;19.56;95.02
59877;BME280;45749;51.140;17.184;2023-08-01T09:29:13;98573.63;;;19.32;95.11
59877;BME280;45749;51.140;17.184;2023-08-01T09:31:42;98596.56;;;19.53;95.39
59877;BME280;45749;51.140;17.184;2023-08-01T09:34:22;98580.34;;;19.48;94.79
59877;BME280;45749;51.140;17.184;2023-08-01T09:37:08;98612.03;;;19.64;94.50
59877;BME280;45749;51.140;17.184;2023-08-01T09:39:33;98565.56;;;19.39;94.24
59877;BME280;45749;51.140;17.184;2023-08-01T09:42:00;98586.72;;;19.47;94.81
59877;BME280;45749;51.140;17.184;2023-08-01T09:44:27;98611.38;;;19.62;94.78
59877;BME280;45749;51.140;17.184;2023-08-01T09:46:57;98605.19;;;19.62;94.82
59877;BME280;45749;51.140;17.184;2023-08-01T09:49:22;98586.53;;;19.49;95.05
59877;BME280;45749;51.140;17.184;2023-08-01T09:51:48;98588.34;;;19.61;95.07
59877;BME280;45749;51.140;17.184;2023-08-01T09:54:15;98563.69;;;19.46;95.08
59877;BME280;45749;51.140;17.184;2023-08-01T09:56:44;98584.22;;;19.65;94.78
59877;BME280;45749;51.140;17.184;2023-08-01T09:59:10;98580.50;;;19.66;95.09
59877;BME280;45749;51.140;17.184;2023-08-01T10:01:36;98565.88;;;19.62;95.27
59877;BME280;45749;51.140;17.184;2023-08-01T10:04:04;98563.22;;;19.62;95.01
59877;BME280;45749;51.140;17.184;2023-08-01T10:06:33;98579.03;;;19.71;95.11
59877;BME280;45749;51.140;17.184;2023-08-01T10:08:59;98569.81;;;19.66;95.15
59877;BME280;45749;51.140;17.184;2023-08-01T10:11:26;98564.44;;;19.66;95.19
59877;BME280;45749;51.140;17.184;2023-08-01T10:13:51;98564.66;;;19.72;95.23
59877;BME280;45749;51.140;17.184;2023-08-01T10:16:17;98536.25;;;19.57;95.05
59877;BME280;45749;51.140;17.184;2023-08-01T10:18:43;98557.03;;;19.68;94.90
59877;BME280;45749;51.140;17.184;2023-08-01T10:21:11;98544.25;;;19.71;95.25
59877;BME280;45749;51.140;17.184;2023-08-01T10:23:42;98546.34;;;19.68;95.13
59877;BME280;45749;51.140;17.184;2023-08-01T10:26:20;98525.38;;;19.65;95.44
59877;BME280;45749;51.140;17.184;2023-08-01T10:28:54;98527.78;;;19.74;95.47
59877;BME280;45749;51.140;17.184;2023-08-01T10:31:22;98525.28;;;19.79;95.48
59877;BME280;45749;51.140;17.184;2023-08-01T10:33:49;98544.09;;;19.97;95.46
59877;BME280;45749;51.140;17.184;2023-08-01T10:36:19;98526.84;;;19.93;95.37
59877;BME280;45749;51.140;17.184;2023-08-01T10:38:52;98542.25;;;20.04;94.69
59877;BME280;45749;51.140;17.184;2023-08-01T10:41:36;98519.03;;;19.91;94.26
59877;BME280;45749;51.140;17.184;2023-08-01T10:44:08;98536.47;;;20.07;93.75
59877;BME280;45749;51.140;17.184;2023-08-01T10:49:15;98508.16;;;19.86;93.14
59877;BME280;45749;51.140;17.184;2023-08-01T10:51:41;98533.59;;;20.02;92.99
59877;BME280;45749;51.140;17.184;2023-08-01T10:54:07;98514.91;;;19.96;93.22
59877;BME280;45749;51.140;17.184;2023-08-01T10:56:45;98520.25;;;19.96;92.63
59877;BME280;45749;51.140;17.184;2023-08-01T10:59:10;98506.13;;;19.82;92.50
59877;BME280;45749;51.140;17.184;2023-08-01T11:01:47;98531.56;;;19.98;92.78
59877;BME280;45749;51.140;17.184;2023-08-01T11:04:19;98519.44;;;19.95;93.43
59877;BME280;45749;51.140;17.184;2023-08-01T11:06:55;98538.09;;;20.08;92.89
59877;BME280;45749;51.140;17.184;2023-08-01T11:09:27;98503.84;;;19.85;93.24
59877;BME280;45749;51.140;17.184;2023-08-01T11:11:55;98538.69;;;20.10;93.20
59877;BME280;45749;51.140;17.184;2023-08-01T11:14:26;98518.78;;;20.00;93.53
59877;BME280;45749;51.140;17.184;2023-08-01T11:16:54;98531.31;;;20.06;93.52
59877;BME280;45749;51.140;17.184;2023-08-01T11:21:46;98511.59;;;19.94;93.95
59877;BME280;45749;51.140;17.184;2023-08-01T11:24:12;98506.19;;;20.00;94.19
59877;BME280;45749;51.140;17.184;2023-08-01T11:26:44;98489.81;;;19.90;94.30
59877;BME280;45749;51.140;17.184;2023-08-01T11:29:11;98468.91;;;19.74;93.82
59877;BME280;45749;51.140;17.184;2023-08-01T11:31:40;98490.66;;;19.84;93.58
59877;BME280;45749;51.140;17.184;2023-08-01T11:34:07;98464.38;;;19.74;94.11
59877;BME280;45749;51.140;17.184;2023-08-01T11:36:34;98460.44;;;19.77;94.05
59877;BME280;45749;51.140;17.184;2023-08-01T11:39:00;98456.72;;;19.84;94.15
59877;BME280;45749;51.140;17.184;2023-08-01T11:41:26;98471.69;;;19.92;93.22
59877;BME280;45749;51.140;17.184;2023-08-01T11:43:53;98478.91;;;19.91;93.08
59877;BME280;45749;51.140;17.184;2023-08-01T11:46:20;98440.34;;;19.67;93.35
59877;BME280;45749;51.140;17.184;2023-08-01T11:48:46;98492.56;;;20.08;93.82
59877;BME280;45749;51.140;17.184;2023-08-01T11:51:12;98472.84;;;20.03;93.80
59877;BME280;45749;51.140;17.184;2023-08-01T11:53:37;98449.44;;;19.91;93.37
59877;BME280;45749;51.140;17.184;2023-08-01T11:56:05;98455.53;;;20.05;93.02
59877;BME280;45749;51.140;17.184;2023-08-01T11:58:32;98469.84;;;20.18;93.06
59877;BME280;45749;51.140;17.184;2023-08-01T12:01:12;98470.66;;;20.18;92.82
59877;BME280;45749;51.140;17.184;2023-08-01T12:03:47;98470.38;;;20.26;93.19
59877;BME280;45749;51.140;17.184;2023-08-01T12:06:13;98467.50;;;20.28;92.60
59877;BME280;45749;51.140;17.184;2023-08-01T12:08:40;98478.59;;;20.31;92.51
59877;BME280;45749;51.140;17.184;2023-08-01T12:11:17;98440.22;;;20.12;92.65
59877;BME280;45749;51.140;17.184;2023-08-01T12:13:46;98427.81;;;20.18;92.63
59877;BME280;45749;51.140;17.184;2023-08-01T12:16:15;98422.03;;;20.21;92.53
59877;BME280;45749;51.140;17.184;2023-08-01T12:18:45;98429.13;;;20.34;92.45
59877;BME280;45749;51.140;17.184;2023-08-01T12:21:12;98421.09;;;20.34;92.30
59877;BME280;45749;51.140;17.184;2023-08-01T12:23:37;98432.25;;;20.49;91.78
59877;BME280;45749;51.140;17.184;2023-08-01T12:26:03;98417.00;;;20.50;91.63
59877;BME280;45749;51.140;17.184;2023-08-01T12:28:31;98417.81;;;20.57;91.08
59877;BME280;45749;51.140;17.184;2023-08-01T12:30:57;98449.25;;;20.87;91.89
59877;BME280;45749;51.140;17.184;2023-08-01T12:33:24;98414.91;;;20.77;91.60
59877;BME280;45749;51.140;17.184;2023-08-01T12:35:49;98438.72;;;21.03;90.37
59877;BME280;45749;51.140;17.184;2023-08-01T12:38:15;98433.50;;;21.08;90.01
59877;BME280;45749;51.140;17.184;2023-08-01T12:40:40;98430.16;;;21.13;89.39
59877;BME280;45749;51.140;17.184;2023-08-01T12:43:05;98401.84;;;20.99;89.26
59877;BME280;45749;51.140;17.184;2023-08-01T12:45:31;98399.53;;;21.02;88.80
59877;BME280;45749;51.140;17.184;2023-08-01T13:04:44;98422.00;;;21.38;86.60
59877;BME280;45749;51.140;17.184;2023-08-01T13:14:12;98378.78;;;21.28;84.54
59877;BME280;45749;51.140;17.184;2023-08-01T13:16:40;98389.81;;;21.38;84.56
59877;BME280;45749;51.140;17.184;2023-08-01T13:19:11;98367.53;;;21.38;84.95